Time;durP1;ratioP1;P1;durP2;ratioP2;P2;SDS_P1;SDS_P2;PMS_P1;PMS_P2;Temp;Humidity;BMP_temperature;BMP_pressure;BME280_temperature;BME280_humidity;BME280_pressure;Samples;Min_cycle;Max_cycle;Signal;HPM_P1;HPM_P2
2023/03/20 00:01:32;;;;;;;2.08;1.60;;;9.30;99.90;;;;;;5020295;28;20032;-73
2023/03/20 00:03:57;;;;;;;2.13;1.58;;;9.30;99.90;;;;;;5017817;28;20036;-74
2023/03/20 00:06:28;;;;;;;1.60;1.40;;;9.30;99.90;;;;;;5036153;28;20030;-74
2023/03/20 00:08:56;;;;;;;1.33;1.27;;;9.30;99.90;;;;;;5035095;28;20028;-75
2023/03/20 00:11:25;;;;;;;1.73;1.40;;;9.30;99.90;;;;;;5034871;28;20506;-73
2023/03/20 00:13:58;;;;;;;2.35;1.30;;;9.30;99.90;;;;;;5031795;28;20036;-75
2023/03/20 00:16:30;;;;;;;0.88;0.88;;;9.30;99.90;;;;;;5036231;28;20029;-73
2023/03/20 00:18:56;;;;;;;2.72;1.75;;;9.30;99.90;;;;;;5033816;28;20064;-74
2023/03/20 00:21:22;;;;;;;1.90;1.30;;;9.30;99.90;;;;;;5034020;28;20030;-73
2023/03/20 00:23:48;;;;;;;1.25;1.15;;;9.30;99.90;;;;;;5032170;28;20474;-73
2023/03/20 00:26:19;;;;;;;1.30;1.20;;;9.30;99.90;;;;;;5020218;28;20026;-73
2023/03/20 00:28:46;;;;;;;1.05;1.02;;;9.30;99.90;;;;;;5031512;28;20120;-74
2023/03/20 00:31:27;;;;;;;1.20;1.10;;;9.30;99.90;;;;;;5026605;28;20055;-73
2023/03/20 00:33:55;;;;;;;1.10;1.00;;;9.30;99.90;;;;;;5017134;28;20025;-73
2023/03/20 00:36:20;;;;;;;1.05;1.00;;;9.30;99.90;;;;;;5033572;28;20359;-73
2023/03/20 00:38:46;;;;;;;1.30;1.20;;;9.30;99.90;;;;;;5033633;28;20120;-73
2023/03/20 00:41:24;;;;;;;1.65;1.40;;;9.30;99.90;;;;;;5036744;28;20105;-73
2023/03/20 00:43:53;;;;;;;1.08;1.08;;;9.30;99.90;;;;;;5033263;28;20113;-73
2023/03/20 00:46:20;;;;;;;4.75;1.38;;;9.20;99.90;;;;;;5016066;28;20106;-73
2023/03/20 00:48:46;;;;;;;1.08;0.98;;;9.20;99.90;;;;;;5048866;28;20041;-73
2023/03/20 00:51:12;;;;;;;1.15;1.08;;;9.20;99.90;;;;;;5050846;28;20062;-72
2023/03/20 00:53:38;;;;;;;2.00;1.20;;;9.20;99.90;;;;;;5053241;28;20040;-72
2023/03/20 00:56:04;;;;;;;1.30;1.20;;;9.20;99.90;;;;;;5042011;28;20028;-73
2023/03/20 00:58:30;;;;;;;1.60;0.90;;;9.20;99.90;;;;;;5046182;28;20030;-73
2023/03/20 01:00:56;;;;;;;1.20;1.00;;;9.20;99.90;;;;;;5046832;28;20030;-72
2023/03/20 01:03:25;;;;;;;0.98;0.88;;;9.20;99.90;;;;;;5053683;28;20025;-73
2023/03/20 01:05:51;;;;;;;2.15;1.10;;;9.20;99.90;;;;;;5045712;28;20030;-73
2023/03/20 01:08:22;;;;;;;0.95;0.95;;;9.20;99.90;;;;;;5032180;28;20029;-73
2023/03/20 01:10:51;;;;;;;3.13;1.00;;;9.20;99.90;;;;;;5021921;28;20018;-73
2023/03/20 01:13:28;;;;;;;1.17;0.90;;;9.20;99.90;;;;;;5017256;28;20119;-73
2023/03/20 01:15:56;;;;;;;1.00;0.90;;;9.20;99.90;;;;;;5022059;28;20649;-73
2023/03/20 01:18:23;;;;;;;0.80;0.80;;;9.10;99.90;;;;;;5036460;28;20175;-73
2023/03/20 01:20:51;;;;;;;1.00;0.90;;;9.20;99.90;;;;;;5037915;28;20030;-71
2023/03/20 01:23:17;;;;;;;1.33;0.90;;;9.20;99.90;;;;;;5036545;28;20009;-73
2023/03/20 01:25:43;;;;;;;0.82;0.70;;;9.20;99.90;;;;;;5036355;28;20386;-72
2023/03/20 01:28:15;;;;;;;1.15;1.02;;;9.20;99.90;;;;;;5036821;28;20026;-73
2023/03/20 01:30:42;;;;;;;0.50;0.50;;;9.20;99.90;;;;;;5019023;28;20088;-72
2023/03/20 01:33:16;;;;;;;0.55;0.55;;;9.20;99.90;;;;;;5015246;28;20559;-73
2023/03/20 01:35:43;;;;;;;1.83;0.95;;;9.20;99.90;;;;;;5018652;28;20090;-73
2023/03/20 01:38:20;;;;;;;2.88;1.77;;;9.20;99.90;;;;;;5021784;28;20041;-73
2023/03/20 01:41:04;;;;;;;1.52;0.82;;;9.20;99.90;;;;;;5037579;28;20037;-74
2023/03/20 01:43:33;;;;;;;0.60;0.60;;;9.20;99.90;;;;;;5035167;28;20030;-72
2023/03/20 01:46:12;;;;;;;0.50;0.50;;;9.20;99.90;;;;;;5019650;28;20120;-73
2023/03/20 01:48:56;;;;;;;0.70;0.70;;;9.20;99.90;;;;;;5034683;28;20704;-72
2023/03/20 01:51:31;;;;;;;0.40;0.40;;;9.20;99.90;;;;;;5036259;28;20033;-72
2023/03/20 01:54:11;;;;;;;0.60;0.60;;;9.20;99.90;;;;;;5036329;28;20044;-72
2023/03/20 01:56:49;;;;;;;0.63;0.55;;;9.20;99.90;;;;;;5035644;28;20025;-73
2023/03/20 01:59:27;;;;;;;0.88;0.65;;;9.20;99.90;;;;;;5028229;28;20512;-73
2023/03/20 02:01:53;;;;;;;0.47;0.47;;;9.20;99.90;;;;;;5036616;28;20013;-73
2023/03/20 02:04:24;;;;;;;0.60;0.60;;;9.30;99.90;;;;;;5035692;28;20021;-73
2023/03/20 02:06:50;;;;;;;0.35;0.35;;;9.30;99.90;;;;;;5036203;28;20470;-73
2023/03/20 02:09:16;;;;;;;0.47;0.47;;;9.30;99.90;;;;;;5033914;28;20505;-73
2023/03/20 02:11:44;;;;;;;0.60;0.60;;;9.30;99.90;;;;;;5035876;28;20033;-73
2023/03/20 02:14:11;;;;;;;0.43;0.43;;;9.30;99.90;;;;;;5035991;28;20045;-73
2023/03/20 02:16:37;;;;;;;0.70;0.70;;;9.30;99.90;;;;;;5036241;28;20029;-73
2023/03/20 02:19:05;;;;;;;0.85;0.50;;;9.30;99.90;;;;;;5035569;28;20033;-74
2023/03/20 02:21:46;;;;;;;0.43;0.43;;;9.30;99.90;;;;;;5037093;28;20017;-73
2023/03/20 02:24:18;;;;;;;0.40;0.40;;;9.30;99.90;;;;;;5036776;28;20026;-73
2023/03/20 02:26:46;;;;;;;0.47;0.47;;;9.30;99.90;;;;;;5036923;28;20025;-73
2023/03/20 02:29:34;;;;;;;0.55;0.55;;;9.30;99.90;;;;;;5014531;28;20037;-73
2023/03/20 02:32:24;;;;;;;0.55;0.55;;;9.30;99.90;;;;;;5050019;28;20025;-73
2023/03/20 02:35:28;;;;;;;0.70;0.43;;;9.30;99.90;;;;;;5044942;28;20037;-73
2023/03/20 02:38:18;;;;;;;0.43;0.43;;;9.30;99.90;;;;;;5005795;28;20042;-73
2023/03/20 02:40:53;;;;;;;0.30;0.30;;;9.30;99.90;;;;;;5026393;28;20026;-73
2023/03/20 02:43:36;;;;;;;0.40;0.40;;;9.30;99.90;;;;;;5025340;28;20033;-73
2023/03/20 02:46:20;;;;;;;0.30;0.30;;;9.30;99.90;;;;;;5027497;28;20509;-73
2023/03/20 02:49:02;;;;;;;0.50;0.50;;;9.30;99.90;;;;;;5043983;28;20033;-72
2023/03/20 02:51:47;;;;;;;0.60;0.60;;;9.30;99.90;;;;;;5045372;28;20037;-73
2023/03/20 02:54:40;;;;;;;0.90;0.90;;;9.30;99.90;;;;;;5045063;28;20053;-72
2023/03/20 02:57:22;;;;;;;0.60;0.60;;;9.20;99.90;;;;;;5029038;28;20025;-72
2023/03/20 03:00:40;;;;;;;0.50;0.50;;;9.20;99.90;;;;;;5034309;28;20029;-74
2023/03/20 03:03:10;;;;;;;0.63;0.52;;;9.20;99.90;;;;;;5012484;28;20042;-73
2023/03/20 03:06:21;;;;;;;0.43;0.35;;;9.20;99.90;;;;;;5033481;28;20036;-73
2023/03/20 03:08:53;;;;;;;0.70;0.50;;;9.20;99.90;;;;;;5022334;28;20196;-73
2023/03/20 03:11:19;;;;;;;0.60;0.40;;;9.20;99.90;;;;;;5035413;28;20331;-73
2023/03/20 03:13:50;;;;;;;0.68;0.47;;;9.20;99.90;;;;;;5032860;28;20032;-73
2023/03/20 03:16:21;;;;;;;0.35;0.22;;;9.20;99.90;;;;;;5013692;28;20045;-73
2023/03/20 03:18:51;;;;;;;0.63;0.50;;;9.20;99.90;;;;;;4997107;28;20137;-73
2023/03/20 03:21:17;;;;;;;0.75;0.40;;;9.20;99.90;;;;;;5014835;28;20269;-73
2023/03/20 03:23:48;;;;;;;0.50;0.50;;;9.20;99.90;;;;;;5014650;28;20022;-73
2023/03/20 03:26:30;;;;;;;0.30;0.30;;;9.20;99.90;;;;;;5031868;28;20021;-73
2023/03/20 03:28:58;;;;;;;;;;;9.20;99.90;;;;;;5032564;28;20050;-73
2023/03/20 03:31:24;;;;;;;0.40;0.40;;;9.20;99.90;;;;;;5029274;28;19905;-73
2023/03/20 03:33:54;;;;;;;0.38;0.38;;;9.20;99.90;;;;;;5034688;28;20060;-73
2023/03/20 03:36:53;;;;;;;0.50;0.45;;;9.20;99.90;;;;;;5018168;28;20462;-73
2023/03/20 03:39:42;;;;;;;0.43;0.32;;;9.20;99.90;;;;;;5013660;28;20034;-73
2023/03/20 03:42:29;;;;;;;0.40;0.40;;;9.20;99.90;;;;;;5011975;28;20033;-74
2023/03/20 03:45:23;;;;;;;0.40;0.40;;;9.20;99.90;;;;;;5015975;28;20026;-73
2023/03/20 03:47:56;;;;;;;0.70;0.70;;;9.20;99.90;;;;;;5026400;28;20061;-72
2023/03/20 03:50:29;;;;;;;0.85;0.82;;;9.10;99.90;;;;;;5033722;28;20073;-73
2023/03/20 03:52:59;;;;;;;0.70;0.70;;;9.10;99.90;;;;;;5033754;28;20026;-73
2023/03/20 03:55:28;;;;;;;0.90;0.90;;;9.10;99.90;;;;;;5033201;28;20028;-74
2023/03/20 03:58:01;;;;;;;0.73;0.68;;;9.10;99.90;;;;;;5035547;28;20057;-73
2023/03/20 04:00:28;;;;;;;0.73;0.70;;;9.10;99.90;;;;;;5025754;28;20022;-74
2023/03/20 04:02:56;;;;;;;0.47;0.47;;;9.10;99.90;;;;;;5012710;28;20022;-74
2023/03/20 04:05:26;;;;;;;2.00;0.70;;;9.00;99.90;;;;;;5010302;28;20077;-73
2023/03/20 04:07:54;;;;;;;0.63;0.63;;;9.10;99.90;;;;;;5012933;28;20041;-74
2023/03/20 04:10:20;;;;;;;0.75;0.75;;;9.10;99.90;;;;;;5013331;28;20029;-74
2023/03/20 04:12:46;;;;;;;0.57;0.57;;;9.10;99.90;;;;;;5020406;28;20038;-73
2023/03/20 04:15:14;;;;;;;0.65;0.60;;;9.10;99.90;;;;;;5022295;28;20033;-72
2023/03/20 04:17:40;;;;;;;0.75;0.75;;;9.10;99.90;;;;;;5021569;28;20057;-72
2023/03/20 04:20:07;;;;;;;2.83;1.10;;;9.10;99.90;;;;;;5024708;28;20091;-73
2023/03/20 04:22:33;;;;;;;1.08;0.80;;;9.10;99.90;;;;;;5022379;28;20097;-71
2023/03/20 04:25:03;;;;;;;0.80;0.70;;;9.10;99.90;;;;;;5021742;28;20013;-72
2023/03/20 04:27:28;;;;;;;0.90;0.80;;;9.10;99.90;;;;;;5024426;28;20036;-73
2023/03/20 04:29:54;;;;;;;1.00;0.90;;;9.10;99.90;;;;;;5026825;28;20033;-73
2023/03/20 04:32:20;;;;;;;0.75;0.60;;;9.10;99.90;;;;;;5025732;28;20107;-73
2023/03/20 04:34:46;;;;;;;0.68;0.68;;;9.10;99.90;;;;;;5025184;28;20053;-73
2023/03/20 04:37:12;;;;;;;1.50;0.80;;;9.10;99.90;;;;;;5029277;28;20483;-73
2023/03/20 04:39:38;;;;;;;0.68;0.63;;;9.10;99.90;;;;;;5026487;28;20498;-73
2023/03/20 04:42:04;;;;;;;0.90;0.80;;;9.10;99.90;;;;;;5036385;28;20026;-73
2023/03/20 04:44:30;;;;;;;0.77;0.77;;;9.10;99.90;;;;;;5036523;28;20009;-73
2023/03/20 04:46:56;;;;;;;1.20;1.10;;;9.00;99.90;;;;;;5037115;28;20028;-73
2023/03/20 04:49:21;;;;;;;1.90;0.98;;;9.10;99.90;;;;;;5036892;28;20025;-73
2023/03/20 04:51:47;;;;;;;1.63;0.90;;;9.00;99.90;;;;;;5035040;28;20072;-74
2023/03/20 04:54:13;;;;;;;1.08;0.90;;;9.00;99.90;;;;;;5038077;28;20106;-74
2023/03/20 04:56:38;;;;;;;0.82;0.82;;;9.00;99.90;;;;;;5037146;28;20449;-73
2023/03/20 04:59:04;;;;;;;0.80;0.80;;;9.00;99.90;;;;;;5028499;28;20052;-73
2023/03/20 05:01:30;;;;;;;1.48;1.13;;;9.00;99.90;;;;;;5039294;28;20022;-73
2023/03/20 05:03:59;;;;;;;2.20;1.10;;;9.00;99.90;;;;;;5037235;28;20080;-73
2023/03/20 05:06:26;;;;;;;0.95;0.93;;;9.00;99.90;;;;;;5019526;28;20108;-73
2023/03/20 05:08:52;;;;;;;1.98;1.08;;;9.00;99.90;;;;;;5034027;28;20030;-73
2023/03/20 05:11:17;;;;;;;1.00;1.00;;;8.90;99.90;;;;;;5023595;28;20039;-73
2023/03/20 05:13:43;;;;;;;1.05;0.85;;;9.00;99.90;;;;;;5017037;28;20364;-73
2023/03/20 05:16:09;;;;;;;0.95;0.95;;;9.00;99.90;;;;;;5017086;28;20061;-73
2023/03/20 05:18:34;;;;;;;2.30;1.48;;;8.90;99.90;;;;;;5022626;28;20041;-74
2023/03/20 05:21:01;;;;;;;1.30;1.20;;;8.90;99.90;;;;;;5022748;28;20030;-73
2023/03/20 05:23:27;;;;;;;1.85;1.30;;;8.90;99.90;;;;;;5017993;28;20080;-73
2023/03/20 05:25:53;;;;;;;0.88;0.82;;;8.90;99.90;;;;;;5018632;28;20039;-73
2023/03/20 05:28:18;;;;;;;0.75;0.60;;;8.90;99.90;;;;;;5008003;28;20012;-74
2023/03/20 05:30:44;;;;;;;1.65;0.90;;;9.00;99.90;;;;;;5026940;28;20057;-73
2023/03/20 05:33:10;;;;;;;2.03;1.40;;;9.00;99.90;;;;;;5017579;28;20073;-72
2023/03/20 05:35:36;;;;;;;1.98;1.13;;;9.00;99.90;;;;;;5015317;28;20033;-73
2023/03/20 05:38:01;;;;;;;2.42;1.90;;;9.00;99.90;;;;;;5018306;28;20025;-74
2023/03/20 05:40:27;;;;;;;2.15;1.27;;;9.00;99.90;;;;;;5035728;28;20037;-73
2023/03/20 05:42:53;;;;;;;1.10;1.02;;;9.00;99.90;;;;;;5035952;28;20025;-73
2023/03/20 05:45:19;;;;;;;1.30;1.20;;;9.00;99.90;;;;;;5035551;28;20040;-73
2023/03/20 05:47:44;;;;;;;2.08;1.33;;;9.00;99.90;;;;;;5035529;28;20022;-75
2023/03/20 05:50:11;;;;;;;1.67;1.58;;;9.00;99.90;;;;;;5029836;28;20105;-73
2023/03/20 05:52:37;;;;;;;2.67;1.52;;;9.00;99.90;;;;;;5017232;28;20526;-74
2023/03/20 05:55:03;;;;;;;1.42;1.33;;;9.00;99.90;;;;;;5013619;28;20056;-74
2023/03/20 05:57:29;;;;;;;1.23;1.13;;;9.00;99.90;;;;;;5023444;28;20033;-74
2023/03/20 05:59:54;;;;;;;1.00;1.00;;;9.00;99.90;;;;;;5030237;28;20037;-74
2023/03/20 06:02:20;;;;;;;1.27;1.25;;;9.10;99.90;;;;;;5043467;28;20018;-74
2023/03/20 06:04:46;;;;;;;2.50;1.90;;;9.10;99.90;;;;;;5023268;28;20040;-74
2023/03/20 06:07:12;;;;;;;2.20;1.80;;;9.10;99.90;;;;;;5014336;28;20040;-74
2023/03/20 06:09:37;;;;;;;1.73;1.60;;;9.10;99.90;;;;;;5025226;28;20085;-74
2023/03/20 06:12:03;;;;;;;2.25;2.10;;;9.00;99.90;;;;;;5029999;28;20431;-74
2023/03/20 06:14:28;;;;;;;2.22;2.05;;;9.10;99.90;;;;;;5032434;28;20068;-74
2023/03/20 06:16:55;;;;;;;2.33;2.13;;;9.00;99.90;;;;;;5027094;28;20026;-74
2023/03/20 06:19:21;;;;;;;4.93;3.13;;;9.10;99.90;;;;;;5017182;28;20032;-74
2023/03/20 06:21:48;;;;;;;2.72;2.53;;;9.10;99.90;;;;;;5017040;28;20030;-74
2023/03/20 06:24:15;;;;;;;3.38;3.08;;;9.10;99.90;;;;;;5023293;28;20406;-73
2023/03/20 06:26:41;;;;;;;3.35;3.05;;;9.10;99.90;;;;;;5016775;28;20018;-74
2023/03/20 06:29:07;;;;;;;3.42;3.05;;;9.00;99.90;;;;;;5027071;28;20036;-74
2023/03/20 06:31:32;;;;;;;4.40;3.97;;;9.00;99.90;;;;;;5021150;28;20032;-75
2023/03/20 06:33:58;;;;;;;3.67;2.90;;;9.00;99.90;;;;;;5035608;28;20077;-73
2023/03/20 06:36:24;;;;;;;4.40;3.30;;;9.00;99.90;;;;;;5038908;28;20029;-73
2023/03/20 06:38:50;;;;;;;4.38;3.97;;;9.00;99.90;;;;;;5030749;28;20078;-75
2023/03/20 06:41:16;;;;;;;4.25;3.33;;;9.00;99.90;;;;;;5005438;28;20097;-73
2023/03/20 06:43:41;;;;;;;4.65;4.05;;;9.00;99.90;;;;;;5000552;28;20064;-74
2023/03/20 06:46:08;;;;;;;4.97;4.47;;;9.10;99.90;;;;;;5028341;28;20025;-73
2023/03/20 06:48:34;;;;;;;5.65;4.38;;;9.10;99.90;;;;;;5030504;28;20025;-73
2023/03/20 06:50:59;;;;;;;3.92;3.53;;;9.10;99.90;;;;;;5035244;28;20099;-73
2023/03/20 06:53:26;;;;;;;4.00;3.50;;;9.10;99.90;;;;;;5036251;28;20024;-75
2023/03/20 06:55:51;;;;;;;6.00;4.18;;;9.10;99.90;;;;;;5028342;28;20021;-74
2023/03/20 06:58:18;;;;;;;5.38;4.03;;;9.10;99.90;;;;;;5036281;28;20094;-75
2023/03/20 07:00:43;;;;;;;3.60;3.30;;;9.10;99.90;;;;;;5028579;28;20093;-76
2023/03/20 07:03:10;;;;;;;4.15;3.75;;;9.20;99.90;;;;;;5035105;28;20018;-74
2023/03/20 07:05:37;;;;;;;3.88;3.08;;;9.20;99.90;;;;;;5017133;28;20030;-74
2023/03/20 07:08:03;;;;;;;5.28;2.63;;;9.30;99.90;;;;;;5032300;28;20026;-74
2023/03/20 07:10:30;;;;;;;4.95;3.95;;;9.30;99.90;;;;;;5017599;28;20034;-75
2023/03/20 07:12:55;;;;;;;4.20;3.80;;;9.30;99.90;;;;;;5000522;28;20040;-75
2023/03/20 07:15:21;;;;;;;4.50;4.10;;;9.30;99.90;;;;;;5024184;28;20104;-74
2023/03/20 07:17:47;;;;;;;4.80;4.25;;;9.40;99.90;;;;;;5026644;28;20029;-74
2023/03/20 07:20:13;;;;;;;2.95;2.63;;;9.40;99.90;;;;;;5032664;28;20033;-75
2023/03/20 07:22:40;;;;;;;3.38;3.08;;;9.60;99.90;;;;;;5031421;28;20036;-74
2023/03/20 07:25:08;;;;;;;4.75;2.95;;;9.70;99.90;;;;;;5026880;28;20036;-74
2023/03/20 07:27:34;;;;;;;3.78;2.70;;;9.80;99.90;;;;;;5030679;28;20025;-74
2023/03/20 07:30:01;;;;;;;2.38;2.17;;;9.80;99.90;;;;;;5025982;28;20060;-75
2023/03/20 07:32:26;;;;;;;3.75;2.67;;;9.90;99.90;;;;;;5035768;28;20139;-75
2023/03/20 07:34:52;;;;;;;3.10;2.80;;;10.00;99.90;;;;;;5018330;28;20475;-74
2023/03/20 07:37:18;;;;;;;4.72;2.97;;;10.10;99.90;;;;;;4998711;28;20026;-74
2023/03/20 07:39:43;;;;;;;4.00;3.00;;;10.20;99.90;;;;;;5024280;28;20030;-73
2023/03/20 07:42:09;;;;;;;2.50;2.30;;;10.30;99.80;;;;;;5024798;28;20115;-75
2023/03/20 07:44:35;;;;;;;3.28;2.97;;;10.40;99.60;;;;;;5026050;28;20041;-75
2023/03/20 07:47:01;;;;;;;3.30;3.00;;;10.50;99.00;;;;;;5022152;28;20032;-75
2023/03/20 07:49:26;;;;;;;3.08;2.80;;;10.50;98.60;;;;;;5030125;28;20036;-75
2023/03/20 07:51:55;;;;;;;2.92;2.63;;;10.60;98.50;;;;;;5031311;28;20030;-74
2023/03/20 07:54:21;;;;;;;2.88;2.58;;;10.70;98.50;;;;;;5034006;28;20026;-75
2023/03/20 07:56:47;;;;;;;2.85;2.60;;;10.90;98.10;;;;;;5015443;28;20072;-75
2023/03/20 07:59:13;;;;;;;2.78;2.55;;;11.10;97.30;;;;;;5022253;28;20061;-75
2023/03/20 08:01:39;;;;;;;4.10;3.47;;;11.10;96.50;;;;;;5016997;28;20034;-76
2023/03/20 08:04:05;;;;;;;2.60;2.40;;;11.10;96.10;;;;;;5031926;28;20500;-75
2023/03/20 08:06:30;;;;;;;3.20;2.70;;;11.00;96.30;;;;;;5030540;28;20041;-75
2023/03/20 08:08:56;;;;;;;3.58;2.92;;;10.90;96.50;;;;;;5032746;28;20021;-75
2023/03/20 08:11:22;;;;;;;3.38;2.78;;;10.90;96.30;;;;;;5051758;28;20028;-75
2023/03/20 08:13:48;;;;;;;2.30;2.10;;;11.00;96.60;;;;;;5032056;28;20065;-75
2023/03/20 08:16:13;;;;;;;2.17;1.95;;;11.30;96.40;;;;;;5032630;28;20044;-75
2023/03/20 08:18:39;;;;;;;2.35;1.92;;;11.40;95.80;;;;;;5030121;28;20060;-75
2023/03/20 08:21:05;;;;;;;1.80;1.70;;;11.50;95.50;;;;;;5005784;28;20017;-74
2023/03/20 08:23:31;;;;;;;1.75;1.65;;;11.60;95.00;;;;;;5020501;28;20077;-74
2023/03/20 08:25:56;;;;;;;2.60;2.35;;;11.50;95.10;;;;;;5037761;28;20056;-74
2023/03/20 08:28:24;;;;;;;1.75;1.55;;;11.50;94.70;;;;;;5036839;28;20017;-75
2023/03/20 08:30:50;;;;;;;3.03;1.95;;;11.40;95.10;;;;;;5027799;28;20034;-75
2023/03/20 08:33:17;;;;;;;1.33;1.23;;;11.50;94.80;;;;;;5019488;28;20079;-75
2023/03/20 08:35:42;;;;;;;2.20;1.33;;;11.50;94.80;;;;;;5031610;28;20026;-75
2023/03/20 08:38:12;;;;;;;2.90;2.15;;;11.50;94.80;;;;;;5018099;28;20538;-76
2023/03/20 08:40:41;;;;;;;3.38;1.83;;;11.70;94.70;;;;;;5002358;28;20026;-76
2023/03/20 08:43:07;;;;;;;1.73;1.55;;;12.00;94.20;;;;;;5001132;28;20030;-74
2023/03/20 08:45:33;;;;;;;1.63;1.52;;;12.30;94.00;;;;;;5009498;28;20022;-75
2023/03/20 08:47:58;;;;;;;1.90;1.67;;;12.50;93.20;;;;;;5017294;28;20566;-75
2023/03/20 08:50:24;;;;;;;1.48;1.38;;;12.60;92.90;;;;;;5029310;28;20437;-74
2023/03/20 08:52:50;;;;;;;1.38;1.27;;;12.70;92.30;;;;;;5036970;28;20390;-74
2023/03/20 08:55:16;;;;;;;2.65;1.48;;;12.90;92.10;;;;;;5028585;28;20053;-75
2023/03/20 08:57:42;;;;;;;1.58;1.48;;;12.90;91.30;;;;;;5035358;28;20037;-75
2023/03/20 09:00:11;;;;;;;2.25;1.10;;;13.00;91.30;;;;;;5033990;28;20101;-76
2023/03/20 09:02:37;;;;;;;1.63;1.30;;;12.90;90.80;;;;;;5024211;28;20033;-76
2023/03/20 09:05:03;;;;;;;0.90;0.90;;;13.00;90.80;;;;;;5035992;28;20048;-74
2023/03/20 09:07:28;;;;;;;0.85;0.77;;;13.00;90.50;;;;;;5036362;28;20049;-74
2023/03/20 09:09:54;;;;;;;1.13;1.00;;;13.00;90.50;;;;;;5034362;28;20025;-74
2023/03/20 09:12:20;;;;;;;0.80;0.80;;;13.00;90.30;;;;;;5027467;28;20076;-74
2023/03/20 09:14:45;;;;;;;0.98;0.75;;;13.10;90.40;;;;;;5016122;28;20034;-75
2023/03/20 09:17:11;;;;;;;0.98;0.70;;;13.10;89.70;;;;;;5017589;28;20022;-75
2023/03/20 09:19:38;;;;;;;1.63;1.10;;;13.20;89.40;;;;;;5032005;28;20126;-74
2023/03/20 09:22:05;;;;;;;1.02;0.85;;;13.10;89.00;;;;;;5019902;28;20086;-74
2023/03/20 09:24:31;;;;;;;0.80;0.75;;;13.10;90.00;;;;;;5023877;28;20045;-74
2023/03/20 09:26:57;;;;;;;1.13;0.90;;;13.10;89.60;;;;;;5028971;28;20014;-74
2023/03/20 09:29:23;;;;;;;0.90;0.90;;;13.10;89.20;;;;;;5047291;28;20025;-74
2023/03/20 09:31:49;;;;;;;0.85;0.73;;;13.20;88.10;;;;;;5050166;28;20048;-74
2023/03/20 09:34:15;;;;;;;0.70;0.70;;;13.30;87.60;;;;;;5049680;28;20072;-74
2023/03/20 09:36:40;;;;;;;1.17;1.10;;;13.30;86.80;;;;;;5016645;28;20026;-76
2023/03/20 09:39:07;;;;;;;2.50;2.15;;;13.20;86.80;;;;;;5042293;28;20033;-74
2023/03/20 09:41:36;;;;;;;2.30;1.40;;;13.00;86.50;;;;;;5049759;28;20057;-74
2023/03/20 09:44:35;;;;;;;1.38;1.20;;;12.90;87.10;;;;;;5045647;28;20072;-75
2023/03/20 09:47:10;;;;;;;3.15;1.50;;;12.90;88.40;;;;;;5033287;28;20026;-74
2023/03/20 09:49:45;;;;;;;2.42;1.30;;;12.80;87.10;;;;;;5037410;28;20033;-73
2023/03/20 09:52:31;;;;;;;0.75;0.75;;;12.80;88.50;;;;;;5007469;28;20132;-74
2023/03/20 09:55:19;;;;;;;0.65;0.65;;;12.80;88.80;;;;;;5016533;28;20120;-75
2023/03/20 09:57:52;;;;;;;0.75;0.75;;;12.90;88.30;;;;;;5035322;28;20136;-75
2023/03/20 10:00:23;;;;;;;2.00;1.00;;;13.00;88.80;;;;;;5027925;28;20478;-74
2023/03/20 10:03:09;;;;;;;1.77;1.13;;;13.30;87.60;;;;;;5017381;28;20025;-75
2023/03/20 10:06:06;;;;;;;1.55;1.20;;;13.30;85.50;;;;;;5009906;28;20064;-75
2023/03/20 10:08:35;;;;;;;0.80;0.80;;;13.30;85.10;;;;;;4996569;28;20029;-75
2023/03/20 10:11:23;;;;;;;1.02;1.00;;;13.20;84.00;;;;;;5026209;28;20018;-75
2023/03/20 10:14:07;;;;;;;1.42;1.33;;;12.90;84.90;;;;;;5016487;28;20072;-74
2023/03/20 10:16:51;;;;;;;1.13;1.02;;;12.60;85.30;;;;;;5035193;28;20040;-75
2023/03/20 10:19:46;;;;;;;0.90;0.90;;;12.40;86.30;;;;;;5034755;28;20121;-74
2023/03/20 10:22:24;;;;;;;3.03;0.88;;;12.20;87.30;;;;;;5029102;28;20017;-75
2023/03/20 10:24:57;;;;;;;1.10;1.08;;;12.00;88.40;;;;;;5029959;28;20093;-74
2023/03/20 10:27:25;;;;;;;4.38;1.20;;;12.00;89.20;;;;;;5022272;28;20025;-75
2023/03/20 10:30:17;;;;;;;2.22;0.90;;;12.20;89.30;;;;;;5027450;28;20029;-74
2023/03/20 10:32:42;;;;;;;0.80;0.80;;;12.30;88.90;;;;;;5030575;28;20080;-74
2023/03/20 10:35:27;;;;;;;0.60;0.60;;;12.60;89.00;;;;;;5021798;28;20017;-76
2023/03/20 10:37:52;;;;;;;0.50;0.50;;;13.00;88.40;;;;;;5035832;28;20084;-76
2023/03/20 10:40:35;;;;;;;2.83;0.70;;;13.50;86.40;;;;;;5028782;28;20034;-76
2023/03/20 10:43:23;;;;;;;0.80;0.80;;;13.90;83.00;;;;;;5000994;28;20066;-76
2023/03/20 10:46:01;;;;;;;1.10;0.55;;;14.20;81.20;;;;;;5022527;28;20021;-76
2023/03/20 10:48:36;;;;;;;0.63;0.50;;;14.50;80.70;;;;;;5017798;28;20025;-76
2023/03/20 10:51:03;;;;;;;0.93;0.50;;;14.90;77.80;;;;;;5015578;28;20078;-76
2023/03/20 10:53:42;;;;;;;0.50;0.50;;;15.00;76.90;;;;;;5018554;28;20325;-76
2023/03/20 10:56:13;;;;;;;0.25;0.25;;;14.80;76.40;;;;;;5031504;28;20026;-77
2023/03/20 10:58:42;;;;;;;0.40;0.40;;;14.70;77.20;;;;;;5028785;28;20030;-76
2023/03/20 11:01:08;;;;;;;0.20;0.20;;;14.50;76.70;;;;;;5031463;28;20025;-74
2023/03/20 11:03:38;;;;;;;0.55;0.40;;;14.30;76.70;;;;;;5038149;28;20123;-74
2023/03/20 11:06:23;;;;;;;0.52;0.52;;;14.10;76.80;;;;;;5026186;28;20005;-74
2023/03/20 11:08:51;;;;;;;0.77;0.60;;;13.90;75.30;;;;;;5032896;28;20519;-74
2023/03/20 11:11:26;;;;;;;0.88;0.60;;;13.80;75.70;;;;;;5010382;28;20111;-74
2023/03/20 11:13:52;;;;;;;0.52;0.50;;;13.70;75.50;;;;;;5036768;28;20117;-74
2023/03/20 11:16:23;;;;;;;0.40;0.40;;;13.60;76.80;;;;;;5035495;28;20049;-75
2023/03/20 11:18:51;;;;;;;1.20;0.50;;;13.70;76.30;;;;;;5022929;28;20030;-74
2023/03/20 11:21:22;;;;;;;1.17;0.60;;;13.70;75.20;;;;;;5020527;28;20049;-74
2023/03/20 11:23:48;;;;;;;0.38;0.35;;;13.60;74.00;;;;;;5020498;28;20072;-74
2023/03/20 11:26:27;;;;;;;1.45;0.52;;;13.40;74.40;;;;;;4997040;28;20152;-74
2023/03/20 11:28:56;;;;;;;1.30;0.30;;;13.60;76.00;;;;;;5028184;28;20120;-74
2023/03/20 11:31:34;;;;;;;0.22;0.22;;;14.10;75.50;;;;;;5027890;28;20029;-74
2023/03/20 11:34:06;;;;;;;0.50;0.50;;;14.60;75.00;;;;;;5033742;28;20026;-74
2023/03/20 11:36:34;;;;;;;0.20;0.20;;;15.70;71.90;;;;;;5025330;28;20386;-75
2023/03/20 11:39:12;;;;;;;0.40;0.40;;;16.50;69.40;;;;;;5014352;28;20054;-75
2023/03/20 11:41:50;;;;;;;0.30;0.30;;;16.50;67.50;;;;;;5030152;28;20139;-75
2023/03/20 11:44:35;;;;;;;0.20;0.20;;;16.20;67.60;;;;;;5021536;28;20025;-75
2023/03/20 11:47:13;;;;;;;0.50;0.50;;;15.90;67.70;;;;;;5025271;28;20018;-75
2023/03/20 11:49:56;;;;;;;0.93;0.30;;;15.70;67.70;;;;;;5015271;28;20021;-75
2023/03/20 11:52:27;;;;;;;1.20;0.50;;;15.50;68.00;;;;;;5019000;28;20033;-75
2023/03/20 11:54:57;;;;;;;2.03;0.90;;;15.40;67.40;;;;;;5027014;28;20038;-75
2023/03/20 11:57:35;;;;;;;0.90;0.60;;;15.30;67.30;;;;;;5032655;28;20025;-75
2023/03/20 12:00:21;;;;;;;0.65;0.65;;;15.20;67.50;;;;;;5022799;28;20104;-75
2023/03/20 12:02:48;;;;;;;1.75;0.70;;;15.10;66.70;;;;;;5031678;28;20022;-74
2023/03/20 12:05:38;;;;;;;1.17;0.70;;;15.00;67.00;;;;;;5016564;28;20032;-74
2023/03/20 12:08:17;;;;;;;1.67;0.70;;;15.00;68.00;;;;;;5013068;28;20082;-74
2023/03/20 12:10:50;;;;;;;1.60;0.63;;;15.00;67.90;;;;;;5014852;28;20022;-73
2023/03/20 12:13:25;;;;;;;0.52;0.52;;;15.00;68.20;;;;;;5018418;28;20034;-74
2023/03/20 12:16:00;;;;;;;1.70;0.93;;;15.10;67.40;;;;;;5015687;28;20022;-74
2023/03/20 12:18:44;;;;;;;0.68;0.68;;;15.20;67.10;;;;;;5030860;28;20033;-75
2023/03/20 12:21:13;;;;;;;0.77;0.60;;;15.10;66.80;;;;;;5017986;28;20463;-74
2023/03/20 12:23:44;;;;;;;0.70;0.70;;;14.90;67.80;;;;;;4997197;28;20471;-75
2023/03/20 12:26:33;;;;;;;0.40;0.40;;;14.80;68.50;;;;;;5015478;28;20022;-75
2023/03/20 12:29:08;;;;;;;1.38;0.93;;;14.70;68.70;;;;;;5033759;28;20040;-74
2023/03/20 12:31:45;;;;;;;0.90;0.85;;;14.80;68.40;;;;;;5025326;28;20052;-74
2023/03/20 12:34:22;;;;;;;0.98;0.63;;;14.70;68.70;;;;;;5022631;28;20050;-75
2023/03/20 12:36:49;;;;;;;0.73;0.60;;;14.70;69.70;;;;;;5031854;28;20109;-74
2023/03/20 12:39:33;;;;;;;0.60;0.60;;;14.60;68.90;;;;;;5035281;28;20029;-73
2023/03/20 12:42:31;;;;;;;0.40;0.40;;;14.50;69.50;;;;;;5030878;28;20030;-73
2023/03/20 12:45:18;;;;;;;0.82;0.82;;;14.30;70.30;;;;;;5009818;28;20042;-75
2023/03/20 12:48:15;;;;;;;0.30;0.30;;;14.20;70.60;;;;;;5033962;28;20429;-75
2023/03/20 12:50:50;;;;;;;3.95;1.08;;;14.00;71.10;;;;;;5036945;28;20017;-74
2023/03/20 12:53:33;;;;;;;0.93;0.60;;;13.80;69.90;;;;;;5041899;28;20021;-74
2023/03/20 12:56:23;;;;;;;0.88;0.63;;;13.60;70.40;;;;;;5044895;28;20478;-74
2023/03/20 12:59:04;;;;;;;0.95;0.82;;;13.30;71.40;;;;;;5033447;28;20049;-75
2023/03/20 13:01:57;;;;;;;0.85;0.85;;;13.20;72.40;;;;;;5026228;28;20029;-75
2023/03/20 13:04:44;;;;;;;1.02;0.60;;;13.00;73.40;;;;;;5023076;28;20498;-74
2023/03/20 13:07:17;;;;;;;0.93;0.80;;;12.90;74.10;;;;;;5039805;28;20092;-73
2023/03/20 13:10:00;;;;;;;0.82;0.80;;;12.80;74.70;;;;;;5048974;28;20022;-74
2023/03/20 13:12:45;;;;;;;2.30;0.70;;;12.80;74.60;;;;;;5042275;28;20052;-75
2023/03/20 13:15:34;;;;;;;0.55;0.55;;;12.80;74.20;;;;;;5039642;28;20079;-75